sensor_id;sensor_type;location;lat;lon;timestamp;temperature;humidity
11140;DHT22;5624;49.388;11.350;2023-04-29T00:00:04;10.50;99.90
11140;DHT22;5624;49.388;11.350;2023-04-29T00:02:33;10.50;99.90
11140;DHT22;5624;49.388;11.350;2023-04-29T00:04:59;10.60;99.90
11140;DHT22;5624;49.388;11.350;2023-04-29T00:07:24;10.50;99.90
11140;DHT22;5624;49.388;11.350;2023-04-29T00:09:50;10.60;99.90
11140;DHT22;5624;49.388;11.350;2023-04-29T00:12:15;10.60;99.90
11140;DHT22;5624;49.388;11.350;2023-04-29T00:14:42;10.60;99.90
11140;DHT22;5624;49.388;11.350;2023-04-29T00:17:08;10.60;99.90
11140;DHT22;5624;49.388;11.350;2023-04-29T00:19:34;10.70;99.90
11140;DHT22;5624;49.388;11.350;2023-04-29T00:21:59;10.70;99.90
11140;DHT22;5624;49.388;11.350;2023-04-29T00:24:26;10.70;99.90
11140;DHT22;5624;49.388;11.350;2023-04-29T00:26:51;10.70;99.90
11140;DHT22;5624;49.388;11.350;2023-04-29T00:29:17;10.70;99.90
11140;DHT22;5624;49.388;11.350;2023-04-29T00:31:43;10.80;99.90
11140;DHT22;5624;49.388;11.350;2023-04-29T00:34:09;10.70;99.90
11140;DHT22;5624;49.388;11.350;2023-04-29T00:36:35;10.70;99.90
11140;DHT22;5624;49.388;11.350;2023-04-29T00:39:01;10.60;99.90
11140;DHT22;5624;49.388;11.350;2023-04-29T00:41:27;10.60;99.90
11140;DHT22;5624;49.388;11.350;2023-04-29T00:43:54;10.70;99.90
11140;DHT22;5624;49.388;11.350;2023-04-29T00:46:19;10.70;99.90
11140;DHT22;5624;49.388;11.350;2023-04-29T00:48:45;10.70;99.90
11140;DHT22;5624;49.388;11.350;2023-04-29T00:51:11;10.70;99.90
11140;DHT22;5624;49.388;11.350;2023-04-29T00:53:37;10.70;99.90
11140;DHT22;5624;49.388;11.350;2023-04-29T00:56:03;10.70;99.90
11140;DHT22;5624;49.388;11.350;2023-04-29T00:58:29;10.70;99.90
11140;DHT22;5624;49.388;11.350;2023-04-29T01:01:01;10.70;99.90
11140;DHT22;5624;49.388;11.350;2023-04-29T01:03:30;10.70;99.90
11140;DHT22;5624;49.388;11.350;2023-04-29T01:14:18;10.80;99.90
11140;DHT22;5624;49.388;11.350;2023-04-29T01:16:50;10.80;99.90
11140;DHT22;5624;49.388;11.350;2023-04-29T01:21:57;10.80;99.90
11140;DHT22;5624;49.388;11.350;2023-04-29T01:24:23;10.80;99.90
11140;DHT22;5624;49.388;11.350;2023-04-29T01:26:58;10.80;99.90
11140;DHT22;5624;49.388;11.350;2023-04-29T01:32:17;10.80;99.90
11140;DHT22;5624;49.388;11.350;2023-04-29T01:35:10;10.80;99.90
11140;DHT22;5624;49.388;11.350;2023-04-29T01:40:15;10.80;99.90
11140;DHT22;5624;49.388;11.350;2023-04-29T01:42:46;10.80;99.90
11140;DHT22;5624;49.388;11.350;2023-04-29T01:45:15;10.80;99.90
11140;DHT22;5624;49.388;11.350;2023-04-29T01:47:46;10.90;99.90
11140;DHT22;5624;49.388;11.350;2023-04-29T01:50:12;10.80;99.90
11140;DHT22;5624;49.388;11.350;2023-04-29T01:52:37;10.90;99.90
11140;DHT22;5624;49.388;11.350;2023-04-29T01:55:04;10.90;99.90
11140;DHT22;5624;49.388;11.350;2023-04-29T01:57:30;10.90;99.90
11140;DHT22;5624;49.388;11.350;2023-04-29T01:59:55;11.00;99.90
11140;DHT22;5624;49.388;11.350;2023-04-29T02:02:21;10.90;99.90
11140;DHT22;5624;49.388;11.350;2023-04-29T02:04:48;10.80;99.90
11140;DHT22;5624;49.388;11.350;2023-04-29T02:07:15;10.90;99.90
11140;DHT22;5624;49.388;11.350;2023-04-29T02:09:41;10.80;99.90
11140;DHT22;5624;49.388;11.350;2023-04-29T02:12:06;10.80;99.90
11140;DHT22;5624;49.388;11.350;2023-04-29T02:14:32;10.80;99.90
11140;DHT22;5624;49.388;11.350;2023-04-29T02:16:58;10.90;99.90
11140;DHT22;5624;49.388;11.350;2023-04-29T02:19:24;10.90;99.90
11140;DHT22;5624;49.388;11.350;2023-04-29T02:21:50;10.90;99.90
11140;DHT22;5624;49.388;11.350;2023-04-29T02:24:16;10.90;99.90
11140;DHT22;5624;49.388;11.350;2023-04-29T02:26:41;10.90;99.90
11140;DHT22;5624;49.388;11.350;2023-04-29T02:29:07;10.90;99.90
11140;DHT22;5624;49.388;11.350;2023-04-29T02:31:33;10.90;99.90
11140;DHT22;5624;49.388;11.350;2023-04-29T02:33:58;10.80;99.90
11140;DHT22;5624;49.388;11.350;2023-04-29T02:36:24;10.90;99.90
11140;DHT22;5624;49.388;11.350;2023-04-29T02:38:51;10.90;99.90
11140;DHT22;5624;49.388;11.350;2023-04-29T02:41:19;10.80;99.90
11140;DHT22;5624;49.388;11.350;2023-04-29T02:43:45;10.80;99.90
11140;DHT22;5624;49.388;11.350;2023-04-29T02:46:11;10.80;99.90
11140;DHT22;5624;49.388;11.350;2023-04-29T02:48:37;10.70;99.90
11140;DHT22;5624;49.388;11.350;2023-04-29T02:51:02;10.70;99.90
11140;DHT22;5624;49.388;11.350;2023-04-29T02:53:28;10.70;99.90
11140;DHT22;5624;49.388;11.350;2023-04-29T02:55:54;10.70;99.90
11140;DHT22;5624;49.388;11.350;2023-04-29T02:58:20;10.70;99.90
11140;DHT22;5624;49.388;11.350;2023-04-29T03:00:45;10.60;99.90
11140;DHT22;5624;49.388;11.350;2023-04-29T03:03:11;10.60;99.90
11140;DHT22;5624;49.388;11.350;2023-04-29T03:05:36;10.60;99.90
11140;DHT22;5624;49.388;11.350;2023-04-29T03:08:02;10.70;99.90
11140;DHT22;5624;49.388;11.350;2023-04-29T03:10:29;10.60;99.90
11140;DHT22;5624;49.388;11.350;2023-04-29T03:12:54;10.50;99.90
11140;DHT22;5624;49.388;11.350;2023-04-29T03:15:20;10.50;99.90
11140;DHT22;5624;49.388;11.350;2023-04-29T03:17:45;10.50;99.90
11140;DHT22;5624;49.388;11.350;2023-04-29T03:20:11;10.50;99.90
11140;DHT22;5624;49.388;11.350;2023-04-29T03:22:37;10.40;99.90
11140;DHT22;5624;49.388;11.350;2023-04-29T03:25:03;10.50;99.90
11140;DHT22;5624;49.388;11.350;2023-04-29T03:27:29;10.50;99.90
11140;DHT22;5624;49.388;11.350;2023-04-29T03:29:54;10.40;99.90
11140;DHT22;5624;49.388;11.350;2023-04-29T03:32:20;10.40;99.90
11140;DHT22;5624;49.388;11.350;2023-04-29T03:34:45;10.30;99.90
11140;DHT22;5624;49.388;11.350;2023-04-29T03:37:11;10.30;99.90
11140;DHT22;5624;49.388;11.350;2023-04-29T03:39:37;10.20;99.90
11140;DHT22;5624;49.388;11.350;2023-04-29T03:42:03;10.30;99.90
11140;DHT22;5624;49.388;11.350;2023-04-29T03:44:29;10.20;99.90
11140;DHT22;5624;49.388;11.350;2023-04-29T03:46:54;10.20;99.90
11140;DHT22;5624;49.388;11.350;2023-04-29T03:49:20;10.20;99.90
11140;DHT22;5624;49.388;11.350;2023-04-29T03:51:45;10.30;99.90
11140;DHT22;5624;49.388;11.350;2023-04-29T03:54:12;10.40;99.90
11140;DHT22;5624;49.388;11.350;2023-04-29T03:56:38;10.30;99.90
11140;DHT22;5624;49.388;11.350;2023-04-29T03:59:03;10.30;99.90
11140;DHT22;5624;49.388;11.350;2023-04-29T04:01:29;10.30;99.90
11140;DHT22;5624;49.388;11.350;2023-04-29T04:03:54;10.30;99.90
11140;DHT22;5624;49.388;11.350;2023-04-29T04:06:20;10.20;99.90
11140;DHT22;5624;49.388;11.350;2023-04-29T04:08:46;10.20;99.90
11140;DHT22;5624;49.388;11.350;2023-04-29T04:11:11;10.30;99.90
11140;DHT22;5624;49.388;11.350;2023-04-29T04:13:40;10.30;99.90
11140;DHT22;5624;49.388;11.350;2023-04-29T04:16:10;10.30;99.90
11140;DHT22;5624;49.388;11.350;2023-04-29T04:18:37;10.40;99.90
11140;DHT22;5624;49.388;11.350;2023-04-29T04:21:07;10.30;99.90
11140;DHT22;5624;49.388;11.350;2023-04-29T04:23:33;10.40;99.90
11140;DHT22;5624;49.388;11.350;2023-04-29T04:25:59;10.40;99.90
11140;DHT22;5624;49.388;11.350;2023-04-29T04:28:24;10.40;99.90
11140;DHT22;5624;49.388;11.350;2023-04-29T04:30:50;10.50;99.90
11140;DHT22;5624;49.388;11.350;2023-04-29T04:33:15;10.60;99.90
11140;DHT22;5624;49.388;11.350;2023-04-29T04:35:41;10.60;99.90
11140;DHT22;5624;49.388;11.350;2023-04-29T04:38:07;10.70;99.90
11140;DHT22;5624;49.388;11.350;2023-04-29T04:40:33;10.80;99.90
11140;DHT22;5624;49.388;11.350;2023-04-29T04:42:59;10.90;99.90
11140;DHT22;5624;49.388;11.350;2023-04-29T04:45:27;11.00;99.90
11140;DHT22;5624;49.388;11.350;2023-04-29T04:47:53;11.10;99.90
11140;DHT22;5624;49.388;11.350;2023-04-29T04:50:19;11.10;99.90
11140;DHT22;5624;49.388;11.350;2023-04-29T04:52:45;11.20;99.90
11140;DHT22;5624;49.388;11.350;2023-04-29T04:55:10;11.30;99.90
11140;DHT22;5624;49.388;11.350;2023-04-29T04:57:36;11.40;99.90
11140;DHT22;5624;49.388;11.350;2023-04-29T05:00:01;11.50;99.90
11140;DHT22;5624;49.388;11.350;2023-04-29T05:02:28;11.70;99.90
11140;DHT22;5624;49.388;11.350;2023-04-29T05:04:54;11.80;99.90
11140;DHT22;5624;49.388;11.350;2023-04-29T05:07:19;12.10;99.90
11140;DHT22;5624;49.388;11.350;2023-04-29T05:09:45;12.50;99.90
11140;DHT22;5624;49.388;11.350;2023-04-29T05:12:10;12.70;99.40
11140;DHT22;5624;49.388;11.350;2023-04-29T05:14:36;12.90;96.00
11140;DHT22;5624;49.388;11.350;2023-04-29T05:17:02;13.20;96.00
11140;DHT22;5624;49.388;11.350;2023-04-29T05:19:27;13.60;93.80
11140;DHT22;5624;49.388;11.350;2023-04-29T05:21:53;13.80;90.00
11140;DHT22;5624;49.388;11.350;2023-04-29T05:24:19;13.60;89.50
11140;DHT22;5624;49.388;11.350;2023-04-29T05:26:44;13.70;90.00
11140;DHT22;5624;49.388;11.350;2023-04-29T05:29:10;13.50;89.40
11140;DHT22;5624;49.388;11.350;2023-04-29T05:31:36;13.60;89.10
11140;DHT22;5624;49.388;11.350;2023-04-29T05:34:03;13.40;89.70
11140;DHT22;5624;49.388;11.350;2023-04-29T05:36:29;13.40;89.90
11140;DHT22;5624;49.388;11.350;2023-04-29T05:38:54;13.40;90.10
11140;DHT22;5624;49.388;11.350;2023-04-29T05:41:20;13.50;90.40
11140;DHT22;5624;49.388;11.350;2023-04-29T05:43:48;13.70;90.50
11140;DHT22;5624;49.388;11.350;2023-04-29T05:46:14;13.70;89.40
11140;DHT22;5624;49.388;11.350;2023-04-29T05:48:40;13.80;88.10
11140;DHT22;5624;49.388;11.350;2023-04-29T05:51:06;13.90;87.70
11140;DHT22;5624;49.388;11.350;2023-04-29T05:53:32;13.90;87.90
11140;DHT22;5624;49.388;11.350;2023-04-29T05:55:57;14.10;87.10
11140;DHT22;5624;49.388;11.350;2023-04-29T05:58:23;14.20;86.80
11140;DHT22;5624;49.388;11.350;2023-04-29T06:00:50;14.30;86.20
11140;DHT22;5624;49.388;11.350;2023-04-29T06:03:16;14.20;85.70
11140;DHT22;5624;49.388;11.350;2023-04-29T06:05:41;14.20;86.10
11140;DHT22;5624;49.388;11.350;2023-04-29T06:08:07;14.00;85.70
11140;DHT22;5624;49.388;11.350;2023-04-29T06:10:33;13.80;87.60
11140;DHT22;5624;49.388;11.350;2023-04-29T06:12:59;13.80;87.90
11140;DHT22;5624;49.388;11.350;2023-04-29T06:15:24;13.70;88.00
11140;DHT22;5624;49.388;11.350;2023-04-29T06:17:50;13.80;87.10
11140;DHT22;5624;49.388;11.350;2023-04-29T06:20:16;13.80;86.10
11140;DHT22;5624;49.388;11.350;2023-04-29T06:22:42;13.80;86.10
11140;DHT22;5624;49.388;11.350;2023-04-29T06:25:08;13.80;85.90
11140;DHT22;5624;49.388;11.350;2023-04-29T06:27:33;14.00;84.40
11140;DHT22;5624;49.388;11.350;2023-04-29T06:29:59;14.60;82.20
11140;DHT22;5624;49.388;11.350;2023-04-29T06:32:24;15.20;80.20
11140;DHT22;5624;49.388;11.350;2023-04-29T06:34:50;15.50;78.20
11140;DHT22;5624;49.388;11.350;2023-04-29T06:37:16;15.50;76.30
11140;DHT22;5624;49.388;11.350;2023-04-29T06:39:41;15.50;76.20
11140;DHT22;5624;49.388;11.350;2023-04-29T06:42:07;16.00;74.40
11140;DHT22;5624;49.388;11.350;2023-04-29T06:44:33;16.30;74.40
11140;DHT22;5624;49.388;11.350;2023-04-29T06:46:58;16.70;73.10
11140;DHT22;5624;49.388;11.350;2023-04-29T06:49:24;16.90;70.50
11140;DHT22;5624;49.388;11.350;2023-04-29T06:51:51;16.70;70.10
11140;DHT22;5624;49.388;11.350;2023-04-29T06:54:16;16.30;70.30
11140;DHT22;5624;49.388;11.350;2023-04-29T06:56:42;15.80;72.50
11140;DHT22;5624;49.388;11.350;2023-04-29T06:59:07;15.40;74.90
11140;DHT22;5624;49.388;11.350;2023-04-29T07:01:36;15.10;75.80
11140;DHT22;5624;49.388;11.350;2023-04-29T07:04:02;14.80;76.70
11140;DHT22;5624;49.388;11.350;2023-04-29T07:06:28;14.40;78.20
11140;DHT22;5624;49.388;11.350;2023-04-29T07:08:53;14.10;79.80
11140;DHT22;5624;49.388;11.350;2023-04-29T07:11:19;13.80;81.40
11140;DHT22;5624;49.388;11.350;2023-04-29T07:13:45;13.60;82.20
11140;DHT22;5624;49.388;11.350;2023-04-29T07:16:15;13.50;83.50
11140;DHT22;5624;49.388;11.350;2023-04-29T07:18:42;13.30;83.70
11140;DHT22;5624;49.388;11.350;2023-04-29T07:21:07;13.20;84.30
11140;DHT22;5624;49.388;11.350;2023-04-29T07:23:33;13.10;85.20
11140;DHT22;5624;49.388;11.350;2023-04-29T07:26:11;12.90;86.30
11140;DHT22;5624;49.388;11.350;2023-04-29T07:28:38;12.90;88.10
11140;DHT22;5624;49.388;11.350;2023-04-29T07:31:05;13.00;87.10
11140;DHT22;5624;49.388;11.350;2023-04-29T07:33:32;13.10;87.20
11140;DHT22;5624;49.388;11.350;2023-04-29T07:35:58;13.10;87.10
11140;DHT22;5624;49.388;11.350;2023-04-29T07:38:24;13.30;85.60
11140;DHT22;5624;49.388;11.350;2023-04-29T07:40:49;13.50;84.50
11140;DHT22;5624;49.388;11.350;2023-04-29T07:43:15;13.70;82.90
11140;DHT22;5624;49.388;11.350;2023-04-29T07:45:40;13.90;84.20
11140;DHT22;5624;49.388;11.350;2023-04-29T07:48:06;14.30;81.30
11140;DHT22;5624;49.388;11.350;2023-04-29T07:50:35;14.50;79.50
11140;DHT22;5624;49.388;11.350;2023-04-29T07:53:03;14.60;77.40
11140;DHT22;5624;49.388;11.350;2023-04-29T07:55:30;14.60;77.90
11140;DHT22;5624;49.388;11.350;2023-04-29T07:57:56;14.60;78.30
11140;DHT22;5624;49.388;11.350;2023-04-29T08:00:22;14.40;77.20
11140;DHT22;5624;49.388;11.350;2023-04-29T08:02:55;14.10;78.80
11140;DHT22;5624;49.388;11.350;2023-04-29T08:05:21;14.00;79.70
11140;DHT22;5624;49.388;11.350;2023-04-29T08:07:48;13.90;79.90
11140;DHT22;5624;49.388;11.350;2023-04-29T08:10:14;13.90;80.60
11140;DHT22;5624;49.388;11.350;2023-04-29T08:12:40;13.70;80.50
11140;DHT22;5624;49.388;11.350;2023-04-29T08:15:06;13.60;81.80
11140;DHT22;5624;49.388;11.350;2023-04-29T08:17:32;13.40;82.60
11140;DHT22;5624;49.388;11.350;2023-04-29T08:19:57;13.10;83.60
11140;DHT22;5624;49.388;11.350;2023-04-29T08:22:23;13.00;85.30
11140;DHT22;5624;49.388;11.350;2023-04-29T08:24:49;12.80;86.00
11140;DHT22;5624;49.388;11.350;2023-04-29T08:27:14;12.70;87.70
11140;DHT22;5624;49.388;11.350;2023-04-29T08:29:40;12.70;88.00
11140;DHT22;5624;49.388;11.350;2023-04-29T08:32:06;12.80;88.20
11140;DHT22;5624;49.388;11.350;2023-04-29T08:34:32;13.10;86.70
11140;DHT22;5624;49.388;11.350;2023-04-29T08:37:00;13.30;85.90
11140;DHT22;5624;49.388;11.350;2023-04-29T08:39:28;13.40;85.20
11140;DHT22;5624;49.388;11.350;2023-04-29T08:41:56;13.60;84.40
11140;DHT22;5624;49.388;11.350;2023-04-29T08:44:21;13.80;84.10
11140;DHT22;5624;49.388;11.350;2023-04-29T08:46:48;14.10;82.30
11140;DHT22;5624;49.388;11.350;2023-04-29T08:49:14;14.40;81.70
11140;DHT22;5624;49.388;11.350;2023-04-29T08:51:39;14.70;80.20
11140;DHT22;5624;49.388;11.350;2023-04-29T08:54:05;15.50;79.00
11140;DHT22;5624;49.388;11.350;2023-04-29T08:56:32;15.90;74.00
11140;DHT22;5624;49.388;11.350;2023-04-29T08:59:01;16.00;71.50
11140;DHT22;5624;49.388;11.350;2023-04-29T09:01:28;15.70;72.70
11140;DHT22;5624;49.388;11.350;2023-04-29T09:04:22;15.90;72.50
11140;DHT22;5624;49.388;11.350;2023-04-29T09:06:50;16.10;71.00
11140;DHT22;5624;49.388;11.350;2023-04-29T09:09:16;15.90;70.60
11140;DHT22;5624;49.388;11.350;2023-04-29T09:11:43;15.50;71.40
11140;DHT22;5624;49.388;11.350;2023-04-29T09:14:09;15.20;72.90
11140;DHT22;5624;49.388;11.350;2023-04-29T09:16:34;14.70;74.50
11140;DHT22;5624;49.388;11.350;2023-04-29T09:19:02;14.30;76.90
11140;DHT22;5624;49.388;11.350;2023-04-29T09:21:28;14.00;78.60
11140;DHT22;5624;49.388;11.350;2023-04-29T09:24:01;13.90;80.30
11140;DHT22;5624;49.388;11.350;2023-04-29T09:26:39;13.90;82.00
11140;DHT22;5624;49.388;11.350;2023-04-29T09:29:15;14.10;81.10
11140;DHT22;5624;49.388;11.350;2023-04-29T09:31:43;14.30;80.00
11140;DHT22;5624;49.388;11.350;2023-04-29T09:34:09;14.60;78.40
11140;DHT22;5624;49.388;11.350;2023-04-29T09:36:51;14.60;77.10
11140;DHT22;5624;49.388;11.350;2023-04-29T09:39:22;14.60;76.40
11140;DHT22;5624;49.388;11.350;2023-04-29T09:44:27;14.60;75.90
11140;DHT22;5624;49.388;11.350;2023-04-29T09:49:27;14.80;75.40
11140;DHT22;5624;49.388;11.350;2023-04-29T09:51:57;15.00;75.60
11140;DHT22;5624;49.388;11.350;2023-04-29T09:54:25;15.60;73.40
11140;DHT22;5624;49.388;11.350;2023-04-29T09:56:52;16.50;70.60
11140;DHT22;5624;49.388;11.350;2023-04-29T09:59:19;17.60;65.40
11140;DHT22;5624;49.388;11.350;2023-04-29T10:01:52;18.50;62.40
11140;DHT22;5624;49.388;11.350;2023-04-29T10:04:19;19.20;59.30
11140;DHT22;5624;49.388;11.350;2023-04-29T10:06:48;18.70;58.40
11140;DHT22;5624;49.388;11.350;2023-04-29T10:09:15;17.80;60.70
11140;DHT22;5624;49.388;11.350;2023-04-29T10:11:45;17.20;63.80
11140;DHT22;5624;49.388;11.350;2023-04-29T10:14:31;16.50;64.30
11140;DHT22;5624;49.388;11.350;2023-04-29T10:17:03;16.00;65.80
11140;DHT22;5624;49.388;11.350;2023-04-29T10:19:46;15.70;68.20
11140;DHT22;5624;49.388;11.350;2023-04-29T10:22:18;15.60;68.70
11140;DHT22;5624;49.388;11.350;2023-04-29T10:24:47;15.60;70.10
11140;DHT22;5624;49.388;11.350;2023-04-29T10:27:14;15.60;69.60
11140;DHT22;5624;49.388;11.350;2023-04-29T10:29:40;15.70;68.80
11140;DHT22;5624;49.388;11.350;2023-04-29T10:32:08;15.70;68.40
11140;DHT22;5624;49.388;11.350;2023-04-29T10:34:37;15.80;68.80
11140;DHT22;5624;49.388;11.350;2023-04-29T10:37:09;15.80;66.30
11140;DHT22;5624;49.388;11.350;2023-04-29T10:39:42;15.80;66.20
11140;DHT22;5624;49.388;11.350;2023-04-29T10:42:45;15.80;67.30
11140;DHT22;5624;49.388;11.350;2023-04-29T10:45:31;15.90;65.80
11140;DHT22;5624;49.388;11.350;2023-04-29T10:53:02;15.90;64.00
11140;DHT22;5624;49.388;11.350;2023-04-29T10:55:29;15.80;63.50
11140;DHT22;5624;49.388;11.350;2023-04-29T10:57:55;15.90;63.40
11140;DHT22;5624;49.388;11.350;2023-04-29T11:00:30;16.00;62.50
11140;DHT22;5624;49.388;11.350;2023-04-29T11:03:00;16.00;62.70
11140;DHT22;5624;49.388;11.350;2023-04-29T11:05:36;16.00;63.80
11140;DHT22;5624;49.388;11.350;2023-04-29T11:08:09;15.90;62.20
11140;DHT22;5624;49.388;11.350;2023-04-29T11:10:40;15.70;63.70
11140;DHT22;5624;49.388;11.350;2023-04-29T11:13:28;15.50;65.00
11140;DHT22;5624;49.388;11.350;2023-04-29T11:16:11;15.40;64.30
11140;DHT22;5624;49.388;11.350;2023-04-29T11:19:06;15.40;65.00
11140;DHT22;5624;49.388;11.350;2023-04-29T11:21:36;15.10;65.30
11140;DHT22;5624;49.388;11.350;2023-04-29T11:24:05;15.10;65.90
11140;DHT22;5624;49.388;11.350;2023-04-29T11:26:35;15.10;65.00
11140;DHT22;5624;49.388;11.350;2023-04-29T11:29:01;15.20;65.00
11140;DHT22;5624;49.388;11.350;2023-04-29T11:31:30;15.10;65.70
11140;DHT22;5624;49.388;11.350;2023-04-29T11:33:55;15.20;65.30
11140;DHT22;5624;49.388;11.350;2023-04-29T11:36:21;15.20;64.30
11140;DHT22;5624;49.388;11.350;2023-04-29T11:38:47;15.20;65.10
11140;DHT22;5624;49.388;11.350;2023-04-29T11:41:12;15.40;63.60
11140;DHT22;5624;49.388;11.350;2023-04-29T11:43:40;15.50;63.30
11140;DHT22;5624;49.388;11.350;2023-04-29T11:46:14;15.80;64.10
11140;DHT22;5624;49.388;11.350;2023-04-29T11:48:47;16.00;63.70
11140;DHT22;5624;49.388;11.350;2023-04-29T11:51:14;15.90;62.00
11140;DHT22;5624;49.388;11.350;2023-04-29T11:53:40;15.90;61.40
11140;DHT22;5624;49.388;11.350;2023-04-29T11:56:10;15.90;61.80
11140;DHT22;5624;49.388;11.350;2023-04-29T11:58:36;15.90;60.90
11140;DHT22;5624;49.388;11.350;2023-04-29T12:01:03;15.70;61.70
11140;DHT22;5624;49.388;11.350;2023-04-29T12:03:30;15.50;62.10
11140;DHT22;5624;49.388;11.350;2023-04-29T12:05:56;15.10;63.50
11140;DHT22;5624;49.388;11.350;2023-04-29T12:08:25;14.90;65.30
11140;DHT22;5624;49.388;11.350;2023-04-29T12:10:56;14.60;66.10
11140;DHT22;5624;49.388;11.350;2023-04-29T12:13:23;14.40;66.90
11140;DHT22;5624;49.388;11.350;2023-04-29T12:15:50;14.30;67.20
11140;DHT22;5624;49.388;11.350;2023-04-29T12:18:17;14.30;67.40
11140;DHT22;5624;49.388;11.350;2023-04-29T12:20:44;14.40;68.50
11140;DHT22;5624;49.388;11.350;2023-04-29T12:23:14;14.50;66.40
11140;DHT22;5624;49.388;11.350;2023-04-29T12:25:40;14.80;66.70
11140;DHT22;5624;49.388;11.350;2023-04-29T12:28:13;15.20;64.70
11140;DHT22;5624;49.388;11.350;2023-04-29T12:30:39;15.60;63.50
11140;DHT22;5624;49.388;11.350;2023-04-29T12:33:08;15.50;63.40
11140;DHT22;5624;49.388;11.350;2023-04-29T12:35:34;15.70;62.50
11140;DHT22;5624;49.388;11.350;2023-04-29T12:38:00;15.80;62.90
11140;DHT22;5624;49.388;11.350;2023-04-29T12:40:25;15.80;62.90
11140;DHT22;5624;49.388;11.350;2023-04-29T12:42:54;15.90;61.30
11140;DHT22;5624;49.388;11.350;2023-04-29T12:45:31;15.90;62.50
11140;DHT22;5624;49.388;11.350;2023-04-29T12:47:57;15.90;62.30
11140;DHT22;5624;49.388;11.350;2023-04-29T12:50:37;15.80;61.10
11140;DHT22;5624;49.388;11.350;2023-04-29T12:53:04;15.50;62.10
11140;DHT22;5624;49.388;11.350;2023-04-29T12:55:32;15.30;64.30
11140;DHT22;5624;49.388;11.350;2023-04-29T12:57:58;15.20;61.90
11140;DHT22;5624;49.388;11.350;2023-04-29T13:00:24;15.20;61.90
11140;DHT22;5624;49.388;11.350;2023-04-29T13:02:50;15.20;60.70
11140;DHT22;5624;49.388;11.350;2023-04-29T13:05:16;15.10;60.60
11140;DHT22;5624;49.388;11.350;2023-04-29T13:07:41;15.10;61.50
11140;DHT22;5624;49.388;11.350;2023-04-29T13:10:07;15.10;61.90
11140;DHT22;5624;49.388;11.350;2023-04-29T13:12:33;15.30;62.20
11140;DHT22;5624;49.388;11.350;2023-04-29T13:14:59;15.30;62.30
11140;DHT22;5624;49.388;11.350;2023-04-29T13:17:24;15.30;61.60
11140;DHT22;5624;49.388;11.350;2023-04-29T13:19:50;15.30;60.90
11140;DHT22;5624;49.388;11.350;2023-04-29T13:22:16;15.10;61.60
11140;DHT22;5624;49.388;11.350;2023-04-29T13:24:41;15.30;60.50
11140;DHT22;5624;49.388;11.350;2023-04-29T13:27:07;15.30;60.90
11140;DHT22;5624;49.388;11.350;2023-04-29T13:29:33;15.40;61.00
11140;DHT22;5624;49.388;11.350;2023-04-29T13:31:58;15.60;61.40
11140;DHT22;5624;49.388;11.350;2023-04-29T13:34:24;15.80;60.30
11140;DHT22;5624;49.388;11.350;2023-04-29T13:36:50;15.80;59.90
11140;DHT22;5624;49.388;11.350;2023-04-29T13:39:15;16.00;60.30
11140;DHT22;5624;49.388;11.350;2023-04-29T13:41:41;16.00;59.90
11140;DHT22;5624;49.388;11.350;2023-04-29T13:44:07;15.70;59.20
11140;DHT22;5624;49.388;11.350;2023-04-29T13:46:33;15.50;59.70
11140;DHT22;5624;49.388;11.350;2023-04-29T13:48:58;15.30;59.10
11140;DHT22;5624;49.388;11.350;2023-04-29T13:51:24;15.20;59.70
11140;DHT22;5624;49.388;11.350;2023-04-29T13:53:50;15.20;59.40
11140;DHT22;5624;49.388;11.350;2023-04-29T13:56:15;15.20;59.70
11140;DHT22;5624;49.388;11.350;2023-04-29T13:58:41;15.30;59.80
11140;DHT22;5624;49.388;11.350;2023-04-29T14:01:07;15.40;59.20
11140;DHT22;5624;49.388;11.350;2023-04-29T14:03:32;15.40;60.40
11140;DHT22;5624;49.388;11.350;2023-04-29T14:05:58;15.50;60.30
11140;DHT22;5624;49.388;11.350;2023-04-29T14:08:24;15.70;60.40
11140;DHT22;5624;49.388;11.350;2023-04-29T14:10:49;15.90;58.80
11140;DHT22;5624;49.388;11.350;2023-04-29T14:13:15;15.90;57.90
11140;DHT22;5624;49.388;11.350;2023-04-29T14:15:42;16.00;56.20
11140;DHT22;5624;49.388;11.350;2023-04-29T14:18:07;15.80;56.10
11140;DHT22;5624;49.388;11.350;2023-04-29T14:20:34;15.60;57.40
11140;DHT22;5624;49.388;11.350;2023-04-29T14:23:00;15.50;57.70
11140;DHT22;5624;49.388;11.350;2023-04-29T14:25:26;15.50;57.90
11140;DHT22;5624;49.388;11.350;2023-04-29T14:27:52;15.40;58.30
11140;DHT22;5624;49.388;11.350;2023-04-29T14:30:17;15.40;58.90
11140;DHT22;5624;49.388;11.350;2023-04-29T14:32:43;15.40;59.60
11140;DHT22;5624;49.388;11.350;2023-04-29T14:35:08;15.30;59.50
11140;DHT22;5624;49.388;11.350;2023-04-29T14:37:34;15.30;60.00
11140;DHT22;5624;49.388;11.350;2023-04-29T14:40:00;14.90;62.60
11140;DHT22;5624;49.388;11.350;2023-04-29T14:42:25;14.80;64.40
11140;DHT22;5624;49.388;11.350;2023-04-29T14:44:51;14.50;66.10
11140;DHT22;5624;49.388;11.350;2023-04-29T14:47:18;14.20;67.80
11140;DHT22;5624;49.388;11.350;2023-04-29T14:49:44;14.10;67.90
11140;DHT22;5624;49.388;11.350;2023-04-29T14:52:09;14.00;68.60
11140;DHT22;5624;49.388;11.350;2023-04-29T14:54:35;13.90;69.30
11140;DHT22;5624;49.388;11.350;2023-04-29T14:57:01;13.90;69.90
11140;DHT22;5624;49.388;11.350;2023-04-29T14:59:26;13.80;69.40
11140;DHT22;5624;49.388;11.350;2023-04-29T15:01:54;13.70;70.00
11140;DHT22;5624;49.388;11.350;2023-04-29T15:04:21;13.60;70.20
11140;DHT22;5624;49.388;11.350;2023-04-29T15:06:47;13.50;70.50
11140;DHT22;5624;49.388;11.350;2023-04-29T15:09:13;13.50;70.50
11140;DHT22;5624;49.388;11.350;2023-04-29T15:11:39;13.50;70.10
11140;DHT22;5624;49.388;11.350;2023-04-29T15:14:04;13.50;70.20
11140;DHT22;5624;49.388;11.350;2023-04-29T15:16:30;13.50;70.70
11140;DHT22;5624;49.388;11.350;2023-04-29T15:18:56;13.50;71.30
11140;DHT22;5624;49.388;11.350;2023-04-29T15:21:22;13.50;71.30
11140;DHT22;5624;49.388;11.350;2023-04-29T15:23:47;13.50;71.10
11140;DHT22;5624;49.388;11.350;2023-04-29T15:26:13;13.30;71.90
11140;DHT22;5624;49.388;11.350;2023-04-29T15:28:39;13.20;72.70
11140;DHT22;5624;49.388;11.350;2023-04-29T15:31:05;13.20;72.60
11140;DHT22;5624;49.388;11.350;2023-04-29T15:33:30;13.30;72.70
11140;DHT22;5624;49.388;11.350;2023-04-29T15:35:57;13.30;72.30
11140;DHT22;5624;49.388;11.350;2023-04-29T15:38:23;13.30;72.20
11140;DHT22;5624;49.388;11.350;2023-04-29T15:40:48;13.30;71.70
11140;DHT22;5624;49.388;11.350;2023-04-29T15:43:14;13.20;72.60
11140;DHT22;5624;49.388;11.350;2023-04-29T15:45:39;13.10;72.30
11140;DHT22;5624;49.388;11.350;2023-04-29T15:48:06;13.10;72.80
11140;DHT22;5624;49.388;11.350;2023-04-29T15:50:32;13.20;72.40
11140;DHT22;5624;49.388;11.350;2023-04-29T15:52:57;13.10;72.20
11140;DHT22;5624;49.388;11.350;2023-04-29T15:55:24;13.20;72.20